BAW23R EGFF-EGLL
Flight info
| Callsign | BAW23R |
|---|---|
| Flight time | N/A |
| Altitude | 13000 |
| Route | BCN P4 HAWFA L607 YORQI N21 CAWZE P2 SIRIC |
| Aircraft | A21N/M-SDE2E3FGHIRWXY/LB1 |
Departure
| Time | 2026-05-08 15:35 |
|---|---|
| Airport | Cardiff International Airport (EGFF) |
Arrival
| Time | N/A |
|---|---|
| Airport | London Heathrow Airport (EGLL) |
| Time | Latitude | Longitude | Altitude | Speed | Heading |
|---|---|---|---|---|---|
| 2026-05-08 15:13 | 51.39836 | -3.34075 | 225 ft | 0 kts | 81° |
| 2026-05-08 15:25 | 51.39835 | -3.34092 | 226 ft | 3 kts | 81° |
| 2026-05-08 15:25 | 51.39832 | -3.34120 | 227 ft | 3 kts | 81° |
| 2026-05-08 15:25 | 51.39829 | -3.34148 | 227 ft | 3 kts | 81° |
| 2026-05-08 15:26 | 51.39827 | -3.34176 | 228 ft | 3 kts | 81° |
| 2026-05-08 15:26 | 51.39824 | -3.34204 | 228 ft | 3 kts | 81° |
| 2026-05-08 15:26 | 51.39822 | -3.34232 | 228 ft | 2 kts | 81° |
| 2026-05-08 15:26 | 51.39819 | -3.34259 | 232 ft | 2 kts | 81° |
| 2026-05-08 15:27 | 51.39817 | -3.34278 | 230 ft | 0 kts | 81° |
| 2026-05-08 15:28 | 51.39818 | -3.34276 | 230 ft | 1 kts | 81° |
| 2026-05-08 15:28 | 51.39818 | -3.34250 | 232 ft | 3 kts | 94° |
| 2026-05-08 15:28 | 51.39807 | -3.34201 | 229 ft | 7 kts | 117° |
| 2026-05-08 15:29 | 51.39766 | -3.34069 | 225 ft | 20 kts | 116° |
| 2026-05-08 15:29 | 51.39695 | -3.33841 | 224 ft | 24 kts | 116° |
| 2026-05-08 15:29 | 51.39614 | -3.33580 | 223 ft | 27 kts | 117° |
| 2026-05-08 15:29 | 51.39525 | -3.33302 | 224 ft | 21 kts | 117° |
| 2026-05-08 15:30 | 51.39456 | -3.33092 | 224 ft | 22 kts | 128° |
| 2026-05-08 15:30 | 51.39337 | -3.33077 | 226 ft | 18 kts | 210° |
| 2026-05-08 15:30 | 51.39258 | -3.33228 | 226 ft | 17 kts | 256° |
| 2026-05-08 15:30 | 51.39290 | -3.33341 | 227 ft | 12 kts | 330° |
| 2026-05-08 15:31 | 51.39401 | -3.33511 | 227 ft | 34 kts | 295° |
| 2026-05-08 15:31 | 51.39540 | -3.33956 | 223 ft | 55 kts | 296° |
| 2026-05-08 15:31 | 51.39716 | -3.34521 | 225 ft | 56 kts | 296° |
| 2026-05-08 15:31 | 51.39892 | -3.35065 | 223 ft | 50 kts | 298° |
| 2026-05-08 15:32 | 51.39992 | -3.35363 | 221 ft | 20 kts | 300° |
| 2026-05-08 15:32 | 51.40057 | -3.35551 | 225 ft | 20 kts | 296° |
| 2026-05-08 15:32 | 51.40112 | -3.35703 | 223 ft | 15 kts | 319° |
| 2026-05-08 15:32 | 51.40167 | -3.35792 | 222 ft | 0 kts | 277° |
| 2026-05-08 15:33 | 51.40167 | -3.35795 | 220 ft | 0 kts | 263° |
| 2026-05-08 15:33 | 51.40166 | -3.35796 | 220 ft | 0 kts | 253° |
| 2026-05-08 15:33 | 51.40165 | -3.35798 | 220 ft | 0 kts | 237° |
| 2026-05-08 15:33 | 51.40161 | -3.35800 | 220 ft | 1 kts | 206° |
| 2026-05-08 15:34 | 51.40157 | -3.35797 | 221 ft | 1 kts | 165° |
| 2026-05-08 15:34 | 51.40154 | -3.35791 | 223 ft | 2 kts | 135° |
| 2026-05-08 15:34 | 51.40110 | -3.35725 | 223 ft | 17 kts | 135° |
| 2026-05-08 15:34 | 51.40053 | -3.35560 | 224 ft | 0 kts | 115° |
| 2026-05-08 15:35 | 51.40042 | -3.35524 | 220 ft | 26 kts | 115° |
| 2026-05-08 15:35 | 51.39813 | -3.34796 | 223 ft | 115 kts | 117° |
| 2026-05-08 15:35 | 51.39307 | -3.33315 | 489 ft | 166 kts | 120° |
| 2026-05-08 15:35 | 51.38713 | -3.31471 | 863 ft | 200 kts | 117° |
| 2026-05-08 15:36 | 51.38088 | -3.29402 | 1667 ft | 208 kts | 117° |
| 2026-05-08 15:36 | 51.37669 | -3.28000 | 2362 ft | 210 kts | 117° |
| 2026-05-08 15:36 | 51.36735 | -3.24937 | 3327 ft | 244 kts | 118° |
| 2026-05-08 15:36 | 51.35986 | -3.22452 | 4432 ft | 255 kts | 115° |
| 2026-05-08 15:37 | 51.35642 | -3.19674 | 5667 ft | 257 kts | 86° |
| 2026-05-08 15:37 | 51.36263 | -3.17004 | 6905 ft | 264 kts | 54° |
| 2026-05-08 15:37 | 51.37168 | -3.15630 | 7425 ft | 279 kts | 33° |
| 2026-05-08 15:37 | 51.39688 | -3.14760 | 8193 ft | 284 kts | 347° |
| 2026-05-08 15:38 | 51.41555 | -3.15748 | 9470 ft | 278 kts | 341° |
| 2026-05-08 15:38 | 51.43432 | -3.15949 | 10911 ft | 270 kts | 13° |
| 2026-05-08 15:38 | 51.45010 | -3.14544 | 12320 ft | 256 kts | 50° |
| 2026-05-08 15:38 | 51.45847 | -3.12155 | 13679 ft | 242 kts | 77° |
| 2026-05-08 15:39 | 51.46182 | -3.09497 | 14492 ft | 252 kts | 82° |
| 2026-05-08 15:39 | 51.46511 | -3.06588 | 14885 ft | 280 kts | 82° |
| 2026-05-08 15:39 | 51.46907 | -3.03307 | 14975 ft | 319 kts | 80° |
| 2026-05-08 15:39 | 51.47242 | -3.00867 | 14978 ft | 346 kts | 79° |
| 2026-05-08 15:40 | 51.47854 | -2.96884 | 14977 ft | 375 kts | 77° |
| 2026-05-08 15:40 | 51.48544 | -2.92782 | 15008 ft | 382 kts | 76° |
| 2026-05-08 15:40 | 51.49265 | -2.88683 | 15013 ft | 384 kts | 76° |
| 2026-05-08 15:40 | 51.49995 | -2.84563 | 15017 ft | 383 kts | 76° |
| 2026-05-08 15:41 | 51.50730 | -2.80387 | 14993 ft | 383 kts | 76° |
| 2026-05-08 15:41 | 51.51432 | -2.76349 | 14994 ft | 382 kts | 76° |
| 2026-05-08 15:41 | 51.52185 | -2.71959 | 14993 ft | 382 kts | 76° |
| 2026-05-08 15:41 | 51.52838 | -2.68107 | 14993 ft | 382 kts | 77° |
| 2026-05-08 15:42 | 51.53271 | -2.63918 | 14994 ft | 380 kts | 89° |
| 2026-05-08 15:42 | 51.53276 | -2.59597 | 14993 ft | 379 kts | 94° |
| 2026-05-08 15:42 | 51.53124 | -2.55465 | 14972 ft | 378 kts | 96° |
| 2026-05-08 15:42 | 51.52869 | -2.51208 | 14967 ft | 378 kts | 98° |
| 2026-05-08 15:43 | 51.52568 | -2.47025 | 14969 ft | 377 kts | 99° |
| 2026-05-08 15:43 | 51.51965 | -2.42945 | 14968 ft | 375 kts | 111° |
| 2026-05-08 15:43 | 51.50969 | -2.39085 | 14962 ft | 374 kts | 116° |
| 2026-05-08 15:43 | 51.49831 | -2.35324 | 14966 ft | 374 kts | 118° |
| 2026-05-08 15:44 | 51.48621 | -2.31655 | 14968 ft | 383 kts | 120° |
| 2026-05-08 15:44 | 51.47285 | -2.27761 | 14963 ft | 400 kts | 121° |
| 2026-05-08 15:44 | 51.45923 | -2.23829 | 14968 ft | 404 kts | 121° |
| 2026-05-08 15:44 | 51.44567 | -2.19899 | 14970 ft | 405 kts | 120° |
| 2026-05-08 15:45 | 51.43190 | -2.15878 | 14969 ft | 405 kts | 120° |
| 2026-05-08 15:45 | 51.41845 | -2.11929 | 14970 ft | 405 kts | 120° |
| 2026-05-08 15:45 | 51.40510 | -2.07998 | 14966 ft | 405 kts | 120° |
| 2026-05-08 15:45 | 51.39152 | -2.03990 | 14965 ft | 405 kts | 120° |
| 2026-05-08 15:46 | 51.37974 | -1.99908 | 14842 ft | 402 kts | 111° |
| 2026-05-08 15:46 | 51.37252 | -1.95639 | 14114 ft | 394 kts | 103° |
| 2026-05-08 15:46 | 51.36774 | -1.91324 | 13388 ft | 389 kts | 100° |
| 2026-05-08 15:46 | 51.36425 | -1.86955 | 13026 ft | 401 kts | 98° |
| 2026-05-08 15:47 | 51.36125 | -1.82488 | 12969 ft | 404 kts | 97° |
| 2026-05-08 15:47 | 51.35845 | -1.78062 | 12965 ft | 404 kts | 97° |
| 2026-05-08 15:47 | 51.35553 | -1.73548 | 12970 ft | 403 kts | 97° |
| 2026-05-08 15:47 | 51.35251 | -1.69101 | 12981 ft | 403 kts | 97° |
| 2026-05-08 15:48 | 51.34615 | -1.60243 | 12970 ft | 404 kts | 97° |
| 2026-05-08 15:48 | 51.34638 | -1.55747 | 12972 ft | 406 kts | 83° |
| 2026-05-08 15:48 | 51.35081 | -1.51251 | 12984 ft | 406 kts | 81° |
| 2026-05-08 15:49 | 51.35601 | -1.46776 | 12975 ft | 396 kts | 80° |
| 2026-05-08 15:49 | 51.36116 | -1.42607 | 12985 ft | 364 kts | 80° |
| 2026-05-08 15:49 | 51.36592 | -1.38791 | 13002 ft | 337 kts | 80° |
| 2026-05-08 15:49 | 51.37039 | -1.35199 | 12991 ft | 313 kts | 80° |
| 2026-05-08 15:50 | 51.37442 | -1.31949 | 12994 ft | 292 kts | 80° |
| 2026-05-08 15:50 | 51.37825 | -1.28866 | 12986 ft | 273 kts | 80° |
| 2026-05-08 15:50 | 51.38187 | -1.25931 | 12994 ft | 257 kts | 80° |
| 2026-05-08 15:50 | 51.38522 | -1.23209 | 12992 ft | 251 kts | 81° |
| 2026-05-08 15:51 | 51.38856 | -1.20479 | 12987 ft | 251 kts | 81° |
| 2026-05-08 15:51 | 51.39241 | -1.17747 | 12980 ft | 252 kts | 71° |
| 2026-05-08 15:51 | 51.40122 | -1.15322 | 12659 ft | 255 kts | 58° |
| 2026-05-08 15:51 | 51.40892 | -1.12612 | 11904 ft | 266 kts | 73° |
| 2026-05-08 15:52 | 51.41470 | -1.09675 | 11140 ft | 279 kts | 71° |
| 2026-05-08 15:52 | 51.42293 | -1.06800 | 10352 ft | 291 kts | 66° |
| 2026-05-08 15:52 | 51.43078 | -1.03655 | 9390 ft | 301 kts | 76° |
| 2026-05-08 15:52 | 51.43596 | -1.00417 | 8517 ft | 306 kts | 79° |
| 2026-05-08 15:53 | 51.44076 | -0.96948 | 7466 ft | 316 kts | 79° |
| 2026-05-08 15:53 | 51.44531 | -0.93480 | 6611 ft | 317 kts | 80° |
| 2026-05-08 15:53 | 51.44968 | -0.90071 | 6161 ft | 304 kts | 79° |
| 2026-05-08 15:53 | 51.45375 | -0.86867 | 5927 ft | 285 kts | 80° |
| 2026-05-08 15:54 | 51.45763 | -0.83804 | 5636 ft | 271 kts | 81° |
| 2026-05-08 15:54 | 51.46137 | -0.80816 | 4822 ft | 278 kts | 80° |
| 2026-05-08 15:54 | 51.46520 | -0.77732 | 4050 ft | 282 kts | 80° |
| 2026-05-08 15:54 | 51.46904 | -0.74650 | 3413 ft | 280 kts | 81° |
| 2026-05-08 15:55 | 51.47272 | -0.71697 | 3110 ft | 266 kts | 80° |
| 2026-05-08 15:55 | 51.47673 | -0.67108 | 2806 ft | 228 kts | 90° |
| 2026-05-08 15:55 | 51.47704 | -0.63924 | 2430 ft | 208 kts | 92° |
| 2026-05-08 15:56 | 51.47709 | -0.61623 | 2031 ft | 199 kts | 92° |
| 2026-05-08 15:56 | 51.47712 | -0.60188 | 1852 ft | 193 kts | 91° |
| 2026-05-08 15:56 | 51.47714 | -0.58036 | 1588 ft | 193 kts | 93° |
| 2026-05-08 15:56 | 51.47687 | -0.55923 | 1412 ft | 178 kts | 92° |
| 2026-05-08 15:57 | 51.47743 | -0.53934 | 1152 ft | 171 kts | 90° |
| 2026-05-08 15:57 | 51.47744 | -0.51982 | 769 ft | 168 kts | 92° |
| 2026-05-08 15:57 | 51.47721 | -0.50148 | 359 ft | 164 kts | 87° |
| 2026-05-08 15:57 | 51.47748 | -0.48334 | 120 ft | 148 kts | 89° |